createdAt,value
2022-10-31T00:00:21.587Z,0
2022-10-31T00:01:21.047Z,0
2022-10-31T00:02:21.564Z,0
2022-10-31T00:03:29.779Z,0
2022-10-31T00:04:23.759Z,0
2022-10-31T00:05:21.088Z,0
2022-10-31T00:06:21.012Z,0
2022-10-31T00:07:21.011Z,0
2022-10-31T00:08:21.087Z,0
2022-10-31T00:09:21.312Z,0
2022-10-31T00:10:23.818Z,0
2022-10-31T00:11:21.015Z,0
2022-10-31T00:12:21.017Z,0
2022-10-31T00:14:21.068Z,0
2022-10-31T00:15:23.943Z,0
2022-10-31T00:16:21.047Z,0
2022-10-31T00:17:21.081Z,0
2022-10-31T00:18:21.031Z,0
2022-10-31T00:19:21.082Z,0
2022-10-31T00:20:21.045Z,0
2022-10-31T00:21:24.128Z,0
2022-10-31T00:22:21.047Z,0
2022-10-31T00:23:21.074Z,0
2022-10-31T00:24:21.031Z,0
2022-10-31T00:25:21.104Z,0
2022-10-31T00:26:22.199Z,0
2022-10-31T00:27:27.881Z,0
2022-10-31T00:28:21.489Z,0
2022-10-31T00:29:21.149Z,0
2022-10-31T00:30:21.148Z,0
2022-10-31T00:31:21.160Z,0
2022-10-31T00:32:24.038Z,0
2022-10-31T00:33:21.116Z,0
2022-10-31T00:34:21.053Z,0
2022-10-31T00:35:21.091Z,0
2022-10-31T00:36:21.075Z,0
2022-10-31T00:37:23.897Z,0
2022-10-31T00:38:21.060Z,0
2022-10-31T00:39:21.093Z,0
2022-10-31T00:40:21.087Z,0
2022-10-31T00:41:23.937Z,0
2022-10-31T00:42:21.094Z,0
2022-10-31T00:43:24.102Z,0
2022-10-31T00:44:21.069Z,0
2022-10-31T00:45:21.248Z,0
2022-10-31T00:46:21.310Z,0
2022-10-31T00:47:23.878Z,0
2022-10-31T00:48:23.919Z,0
2022-10-31T00:49:21.105Z,0
2022-10-31T00:50:21.097Z,0
2022-10-31T00:51:21.309Z,0
2022-10-31T00:52:21.103Z,0
2022-10-31T00:53:21.078Z,0
2022-10-31T00:54:21.071Z,0
2022-10-31T00:55:21.113Z,0
2022-10-31T00:56:21.082Z,0
2022-10-31T00:57:20.935Z,0
2022-10-31T00:58:21.357Z,0
2022-10-31T00:59:21.087Z,0
2022-10-31T01:00:21.124Z,0
2022-10-31T01:01:21.888Z,0
2022-10-31T01:02:22.014Z,0
2022-10-31T01:03:21.097Z,0
2022-10-31T01:04:21.105Z,0
2022-10-31T01:05:21.181Z,0
2022-10-31T01:06:21.122Z,0
2022-10-31T01:07:21.118Z,0
2022-10-31T01:08:23.573Z,0
2022-10-31T01:09:21.132Z,0
2022-10-31T01:10:21.180Z,0
2022-10-31T01:11:21.173Z,0
2022-10-31T01:12:21.112Z,0
2022-10-31T01:14:21.206Z,0
2022-10-31T01:15:24.253Z,0
2022-10-31T01:16:21.148Z,0
2022-10-31T01:17:21.216Z,0
2022-10-31T01:18:21.164Z,0
2022-10-31T01:19:21.153Z,0
2022-10-31T01:20:21.361Z,0
2022-10-31T01:21:21.134Z,0
2022-10-31T01:22:21.153Z,0
2022-10-31T01:23:21.125Z,0
2022-10-31T01:24:21.169Z,0
2022-10-31T01:25:21.154Z,0
2022-10-31T01:26:22.413Z,0
2022-10-31T01:27:21.129Z,0
2022-10-31T01:28:21.569Z,0
2022-10-31T01:29:21.138Z,0
2022-10-31T01:30:21.162Z,0
2022-10-31T01:31:24.144Z,0
2022-10-31T01:32:21.155Z,0
2022-10-31T01:33:21.222Z,0
2022-10-31T01:34:21.163Z,0
2022-10-31T01:35:21.192Z,0
2022-10-31T01:36:21.169Z,0
2022-10-31T01:37:23.977Z,0
2022-10-31T01:38:21.173Z,0
2022-10-31T01:39:21.203Z,0
2022-10-31T01:40:21.203Z,0
2022-10-31T01:41:21.174Z,0
2022-10-31T01:42:27.313Z,0
2022-10-31T01:44:24.280Z,0
2022-10-31T01:45:21.258Z,0
2022-10-31T01:46:21.188Z,0
2022-10-31T01:47:21.232Z,0
2022-10-31T01:48:23.948Z,0
2022-10-31T01:49:21.256Z,0
2022-10-31T01:50:21.229Z,0
2022-10-31T01:51:21.165Z,0
2022-10-31T01:52:21.173Z,0
2022-10-31T01:53:30.429Z,0
2022-10-31T01:54:21.199Z,0
2022-10-31T01:55:21.982Z,0
2022-10-31T01:56:21.203Z,0
2022-10-31T01:57:21.208Z,0
2022-10-31T01:58:24.331Z,0
2022-10-31T01:59:21.188Z,0
2022-10-31T02:00:21.259Z,0
2022-10-31T02:01:22.003Z,0
2022-10-31T02:02:22.432Z,0
2022-10-31T02:03:21.211Z,0
2022-10-31T02:04:24.072Z,0
2022-10-31T02:05:21.315Z,0
2022-10-31T02:06:21.221Z,0
2022-10-31T02:07:21.220Z,0
2022-10-31T02:08:21.254Z,0
2022-10-31T02:09:31.128Z,0
2022-10-31T02:10:21.228Z,0
2022-10-31T02:11:21.203Z,0
2022-10-31T02:12:21.207Z,0
2022-10-31T02:13:21.686Z,0
2022-10-31T02:14:21.223Z,0
2022-10-31T02:15:21.941Z,0
2022-10-31T02:16:21.218Z,0
2022-10-31T02:17:21.255Z,0
2022-10-31T02:18:21.219Z,0
2022-10-31T02:19:21.232Z,0
2022-10-31T02:20:24.440Z,0
2022-10-31T02:21:21.268Z,0
2022-10-31T02:22:21.245Z,0
2022-10-31T02:23:21.256Z,0
2022-10-31T02:24:21.265Z,0
2022-10-31T02:25:21.335Z,0
2022-10-31T02:26:24.257Z,0
2022-10-31T02:27:21.248Z,0
2022-10-31T02:28:29.382Z,0
2022-10-31T02:29:21.276Z,0
2022-10-31T02:30:21.256Z,0
2022-10-31T02:31:24.344Z,0
2022-10-31T02:32:21.310Z,0
2022-10-31T02:33:21.338Z,0
2022-10-31T02:34:21.256Z,0
2022-10-31T02:35:21.296Z,0
2022-10-31T02:36:21.347Z,0
2022-10-31T02:37:24.032Z,0
2022-10-31T02:38:21.314Z,0
2022-10-31T02:39:21.250Z,0
2022-10-31T02:40:21.285Z,0
2022-10-31T02:41:21.277Z,0
2022-10-31T02:42:24.284Z,0
2022-10-31T02:43:21.280Z,0
2022-10-31T02:44:21.298Z,0
2022-10-31T02:45:21.312Z,0
2022-10-31T02:46:21.395Z,0
2022-10-31T02:47:21.281Z,0
2022-10-31T02:48:24.217Z,0
2022-10-31T02:49:21.267Z,0
2022-10-31T02:50:21.304Z,0
2022-10-31T02:51:21.296Z,0
2022-10-31T02:52:21.355Z,0
2022-10-31T02:53:22.367Z,0
2022-10-31T02:54:21.324Z,0
2022-10-31T02:55:21.298Z,0
2022-10-31T02:56:21.293Z,0
2022-10-31T02:57:21.359Z,0
2022-10-31T02:58:21.491Z,0
2022-10-31T02:59:24.436Z,0
2022-10-31T03:00:21.344Z,0
2022-10-31T03:01:22.073Z,0
2022-10-31T03:02:22.494Z,0
2022-10-31T03:03:21.293Z,0
2022-10-31T03:04:24.169Z,0
2022-10-31T03:05:21.363Z,0
2022-10-31T03:06:21.368Z,0
2022-10-31T03:07:21.306Z,0
2022-10-31T03:08:21.451Z,0
2022-10-31T03:09:21.313Z,0
2022-10-31T03:10:24.434Z,0
2022-10-31T03:11:21.308Z,0
2022-10-31T03:12:21.372Z,0
2022-10-31T03:13:24.865Z,0
2022-10-31T03:14:21.418Z,0
2022-10-31T03:15:24.407Z,0
2022-10-31T03:16:21.396Z,0
2022-10-31T03:17:21.324Z,0
2022-10-31T03:18:21.336Z,0
2022-10-31T03:19:21.316Z,0
2022-10-31T03:20:21.333Z,0
2022-10-31T03:21:21.333Z,0
2022-10-31T03:22:21.341Z,0
2022-10-31T03:23:21.360Z,0
2022-10-31T03:24:21.410Z,0
2022-10-31T03:25:21.346Z,0
2022-10-31T03:26:21.385Z,0
2022-10-31T03:27:21.343Z,0
2022-10-31T03:28:21.713Z,0
2022-10-31T03:29:21.372Z,0
2022-10-31T03:30:21.330Z,0
2022-10-31T03:31:21.357Z,0
2022-10-31T03:32:21.338Z,0
2022-10-31T03:33:21.357Z,0
2022-10-31T03:34:21.371Z,0
2022-10-31T03:35:21.375Z,0
2022-10-31T03:36:21.395Z,0
2022-10-31T03:37:21.369Z,0
2022-10-31T03:38:21.349Z,0
2022-10-31T03:39:21.342Z,0
2022-10-31T03:40:21.478Z,0
2022-10-31T03:41:21.369Z,0
2022-10-31T03:42:24.305Z,0
2022-10-31T03:44:21.366Z,0
2022-10-31T03:45:21.409Z,0
2022-10-31T03:46:21.433Z,0
2022-10-31T03:47:21.380Z,0
2022-10-31T03:48:21.365Z,0
2022-10-31T03:49:21.389Z,0
2022-10-31T03:50:21.375Z,0
2022-10-31T03:51:21.398Z,0
2022-10-31T03:52:21.400Z,0
2022-10-31T03:53:24.122Z,0
2022-10-31T03:54:21.402Z,0
2022-10-31T03:55:21.419Z,0
2022-10-31T03:56:21.490Z,0
2022-10-31T03:57:21.393Z,0
2022-10-31T03:58:21.925Z,0
2022-10-31T03:59:21.380Z,0
2022-10-31T04:00:21.397Z,0
2022-10-31T04:01:22.317Z,0
2022-10-31T04:02:22.568Z,0
2022-10-31T04:03:21.485Z,0
2022-10-31T04:04:24.236Z,0
2022-10-31T04:05:21.448Z,0
2022-10-31T04:06:21.479Z,0
2022-10-31T04:07:21.391Z,0
2022-10-31T04:08:21.402Z,0
2022-10-31T04:09:24.257Z,0
2022-10-31T04:10:21.391Z,0
2022-10-31T04:11:21.442Z,0
2022-10-31T04:12:21.488Z,0
2022-10-31T04:13:21.529Z,0
2022-10-31T04:14:21.506Z,0
2022-10-31T04:15:24.249Z,0
2022-10-31T04:16:26.315Z,0
2022-10-31T04:17:21.434Z,0
2022-10-31T04:18:21.598Z,0
2022-10-31T04:19:21.435Z,0
2022-10-31T04:20:25.581Z,0
2022-10-31T04:21:21.295Z,0
2022-10-31T04:22:21.432Z,0
2022-10-31T04:23:23.892Z,0
2022-10-31T04:24:21.522Z,0
2022-10-31T04:25:24.515Z,0
2022-10-31T04:26:30.034Z,0
2022-10-31T04:27:21.432Z,0
2022-10-31T04:28:21.731Z,0
2022-10-31T04:29:21.449Z,0
2022-10-31T04:30:21.457Z,0
2022-10-31T04:31:24.385Z,0
2022-10-31T04:32:21.498Z,0
2022-10-31T04:33:21.296Z,0
2022-10-31T04:34:21.438Z,0
2022-10-31T04:35:21.429Z,0
2022-10-31T04:36:22.778Z,0
2022-10-31T04:37:21.444Z,0
2022-10-31T04:38:21.458Z,0
2022-10-31T04:39:27.908Z,0
2022-10-31T04:40:21.657Z,0
2022-10-31T04:41:21.482Z,0
2022-10-31T04:42:24.203Z,0
2022-10-31T04:43:22.838Z,0
2022-10-31T04:44:21.552Z,0
2022-10-31T04:45:28.300Z,0
2022-10-31T04:46:21.524Z,0
2022-10-31T04:47:24.477Z,0
2022-10-31T04:48:21.517Z,0
2022-10-31T04:49:21.512Z,0
2022-10-31T04:50:21.477Z,0
2022-10-31T04:51:21.538Z,0
2022-10-31T04:52:21.458Z,0
2022-10-31T04:53:24.369Z,0
2022-10-31T04:54:21.476Z,0
2022-10-31T04:55:21.494Z,0
2022-10-31T04:56:21.512Z,0
2022-10-31T04:57:22.704Z,0
2022-10-31T04:58:27.300Z,0
2022-10-31T04:59:21.489Z,0
2022-10-31T05:00:21.573Z,0
2022-10-31T05:01:23.374Z,0
2022-10-31T05:02:22.195Z,0
2022-10-31T05:03:21.486Z,0
2022-10-31T05:04:24.131Z,0
2022-10-31T05:05:21.586Z,0
2022-10-31T05:06:21.562Z,0
2022-10-31T05:07:24.457Z,0
2022-10-31T05:08:21.522Z,0
2022-10-31T05:09:24.530Z,0
2022-10-31T05:10:21.520Z,0
2022-10-31T05:11:21.565Z,0
2022-10-31T05:12:21.512Z,0
2022-10-31T05:14:21.547Z,0
2022-10-31T05:15:24.317Z,0
2022-10-31T05:16:21.615Z,0
2022-10-31T05:17:21.560Z,0
2022-10-31T05:18:21.531Z,0
2022-10-31T05:19:21.526Z,0
2022-10-31T05:20:24.331Z,0
2022-10-31T05:21:21.640Z,0
2022-10-31T05:22:21.523Z,0
2022-10-31T05:23:21.547Z,0
2022-10-31T05:24:21.549Z,0
2022-10-31T05:25:21.561Z,0
2022-10-31T05:26:24.539Z,0
2022-10-31T05:27:21.541Z,0
2022-10-31T05:28:21.576Z,0
2022-10-31T05:29:21.525Z,0
2022-10-31T05:30:25.538Z,0
2022-10-31T05:31:24.375Z,0
2022-10-31T05:32:21.612Z,0
2022-10-31T05:33:21.616Z,0
2022-10-31T05:34:21.537Z,0
2022-10-31T05:35:21.572Z,0
2022-10-31T05:36:21.608Z,0
2022-10-31T05:37:24.431Z,0
2022-10-31T05:38:24.571Z,0
2022-10-31T05:39:21.558Z,0
2022-10-31T05:40:21.681Z,0
2022-10-31T05:41:21.597Z,0
2022-10-31T05:42:24.426Z,0
2022-10-31T05:43:21.558Z,0
2022-10-31T05:44:21.573Z,0
2022-10-31T05:45:21.582Z,0
2022-10-31T05:46:21.757Z,0
2022-10-31T05:47:21.712Z,0
2022-10-31T05:48:21.604Z,0
2022-10-31T05:49:21.586Z,0
2022-10-31T05:50:21.596Z,0
2022-10-31T05:51:21.602Z,0
2022-10-31T05:52:21.650Z,0
2022-10-31T05:53:24.347Z,0
2022-10-31T05:54:25.091Z,0
2022-10-31T05:55:21.602Z,0
2022-10-31T05:56:21.686Z,0
2022-10-31T05:57:21.594Z,0
2022-10-31T05:58:21.573Z,0
2022-10-31T05:59:21.589Z,0
2022-10-31T06:00:21.588Z,0
2022-10-31T06:01:22.541Z,0
2022-10-31T06:02:21.660Z,0
2022-10-31T06:03:21.659Z,0
2022-10-31T06:04:22.160Z,0
2022-10-31T06:05:21.836Z,0
2022-10-31T06:06:21.617Z,0
2022-10-31T06:07:21.631Z,0
2022-10-31T06:08:21.822Z,0
2022-10-31T06:09:24.711Z,0
2022-10-31T06:10:21.602Z,0
2022-10-31T06:11:21.606Z,0
2022-10-31T06:12:21.453Z,0
2022-10-31T06:13:21.605Z,0
2022-10-31T06:14:21.612Z,0
2022-10-31T06:15:31.750Z,0
2022-10-31T06:16:21.614Z,0
2022-10-31T06:17:21.695Z,0
2022-10-31T06:18:21.594Z,0
2022-10-31T06:19:21.725Z,0
2022-10-31T06:20:22.800Z,0
2022-10-31T06:21:26.213Z,0
2022-10-31T06:22:21.643Z,0
2022-10-31T06:23:21.638Z,0
2022-10-31T06:24:21.650Z,0
2022-10-31T06:25:24.705Z,0
2022-10-31T06:26:21.634Z,0
2022-10-31T06:27:21.734Z,0
2022-10-31T06:28:21.630Z,0
2022-10-31T06:29:21.730Z,0
2022-10-31T06:30:21.642Z,0
2022-10-31T06:31:24.433Z,0
2022-10-31T06:32:21.671Z,0
2022-10-31T06:33:21.644Z,0
2022-10-31T06:34:21.638Z,0
2022-10-31T06:35:22.706Z,0
2022-10-31T06:36:30.743Z,5
2022-10-31T06:37:21.695Z,5
2022-10-31T06:38:21.658Z,5
2022-10-31T06:39:21.694Z,5
2022-10-31T06:40:21.675Z,5
2022-10-31T06:41:21.717Z,5
2022-10-31T06:42:24.429Z,5
2022-10-31T06:43:21.659Z,5
2022-10-31T06:44:21.671Z,5
2022-10-31T06:45:21.667Z,5
2022-10-31T06:46:21.690Z,5
2022-10-31T06:47:24.719Z,5
2022-10-31T06:48:31.457Z,5
2022-10-31T06:49:21.655Z,5
2022-10-31T06:50:21.651Z,5
2022-10-31T06:51:21.747Z,5
2022-10-31T06:52:22.916Z,5
2022-10-31T06:53:24.965Z,5
2022-10-31T06:54:21.667Z,5
2022-10-31T06:55:21.670Z,5
2022-10-31T06:56:21.692Z,5
2022-10-31T06:57:21.744Z,5
2022-10-31T06:58:24.625Z,5
2022-10-31T06:59:21.724Z,5
2022-10-31T07:00:21.701Z,10
2022-10-31T07:01:22.727Z,10
2022-10-31T07:02:22.840Z,10
2022-10-31T07:03:22.869Z,10
2022-10-31T07:04:21.691Z,10
2022-10-31T07:05:21.746Z,10
2022-10-31T07:06:21.684Z,10
2022-10-31T07:07:21.944Z,10
2022-10-31T07:08:21.766Z,15
2022-10-31T07:09:24.773Z,15
2022-10-31T07:10:21.743Z,15
2022-10-31T07:11:21.685Z,15
2022-10-31T07:12:21.582Z,15
2022-10-31T07:13:21.556Z,15
2022-10-31T07:14:24.543Z,15
2022-10-31T07:15:21.610Z,15
2022-10-31T07:16:21.739Z,15
2022-10-31T07:17:23.049Z,15
2022-10-31T07:18:21.855Z,15
2022-10-31T07:19:21.788Z,15
2022-10-31T07:20:27.706Z,20
2022-10-31T07:21:21.706Z,20
2022-10-31T07:22:21.776Z,20
2022-10-31T07:23:21.782Z,20
2022-10-31T07:24:21.774Z,20
2022-10-31T07:25:24.755Z,20
2022-10-31T07:26:21.743Z,20
2022-10-31T07:27:21.743Z,20
2022-10-31T07:28:22.829Z,15
2022-10-31T07:29:21.797Z,15
2022-10-31T07:30:22.071Z,15
2022-10-31T07:31:22.929Z,15
2022-10-31T07:32:22.833Z,15
2022-10-31T07:33:21.723Z,15
2022-10-31T07:34:21.787Z,15
2022-10-31T07:35:21.737Z,15
2022-10-31T07:36:24.558Z,20
2022-10-31T07:37:21.737Z,20
2022-10-31T07:38:21.967Z,20
2022-10-31T07:39:21.801Z,20
2022-10-31T07:40:21.821Z,20
2022-10-31T07:41:21.774Z,20
2022-10-31T07:42:24.895Z,20
2022-10-31T07:43:23.788Z,25
2022-10-31T07:44:21.753Z,25
2022-10-31T07:45:21.774Z,25
2022-10-31T07:46:21.762Z,20
2022-10-31T07:47:24.910Z,20
2022-10-31T07:48:21.820Z,30
2022-10-31T07:49:21.763Z,30
2022-10-31T07:50:21.789Z,30
2022-10-31T07:51:22.037Z,30
2022-10-31T07:52:21.653Z,25
2022-10-31T07:53:24.607Z,25
2022-10-31T07:54:21.783Z,20
2022-10-31T07:55:21.966Z,20
2022-10-31T07:56:21.675Z,20
2022-10-31T07:57:34.790Z,25
2022-10-31T07:58:24.986Z,20
2022-10-31T07:59:21.767Z,30
2022-10-31T08:00:21.785Z,30
2022-10-31T08:01:21.862Z,30
2022-10-31T08:02:21.816Z,25
2022-10-31T08:03:21.819Z,25
2022-10-31T08:04:24.755Z,20
2022-10-31T08:05:21.813Z,25
2022-10-31T08:06:21.908Z,20
2022-10-31T08:07:21.983Z,20
2022-10-31T08:08:22.051Z,20
2022-10-31T08:09:24.590Z,20
2022-10-31T08:10:21.839Z,20
2022-10-31T08:11:21.876Z,20
2022-10-31T08:12:21.889Z,20
2022-10-31T08:13:21.893Z,20
2022-10-31T08:14:22.085Z,25
2022-10-31T08:15:21.803Z,30
2022-10-31T08:16:21.830Z,30
2022-10-31T08:17:21.839Z,25
2022-10-31T08:18:22.036Z,20
2022-10-31T08:19:21.818Z,20
2022-10-31T08:20:21.842Z,20
2022-10-31T08:21:21.812Z,25
2022-10-31T08:22:21.829Z,25
2022-10-31T08:23:21.941Z,25
2022-10-31T08:24:21.834Z,30
2022-10-31T08:25:21.861Z,25
2022-10-31T08:26:21.819Z,25
2022-10-31T08:27:21.872Z,25
2022-10-31T08:28:21.965Z,30
2022-10-31T08:29:21.829Z,25
2022-10-31T08:30:21.694Z,30
2022-10-31T08:31:21.868Z,25
2022-10-31T08:32:21.824Z,20
2022-10-31T08:33:21.940Z,20
2022-10-31T08:34:21.835Z,20
2022-10-31T08:35:21.996Z,20
2022-10-31T08:36:26.009Z,20
2022-10-31T08:37:21.870Z,20
2022-10-31T08:38:21.913Z,20
2022-10-31T08:39:21.877Z,20
2022-10-31T08:40:21.863Z,20
2022-10-31T08:41:21.863Z,20
2022-10-31T08:42:21.932Z,20
2022-10-31T08:43:22.022Z,20
2022-10-31T08:44:21.978Z,20
2022-10-31T08:45:21.856Z,20
2022-10-31T08:46:21.892Z,20
2022-10-31T08:47:24.627Z,20
2022-10-31T08:48:21.936Z,25
2022-10-31T08:49:21.905Z,25
2022-10-31T08:50:21.869Z,25
2022-10-31T08:51:21.869Z,30
2022-10-31T08:53:06.692Z,25
2022-10-31T08:53:21.887Z,25
2022-10-31T08:54:21.874Z,30
2022-10-31T08:55:21.876Z,30
2022-10-31T08:56:21.953Z,30
2022-10-31T08:57:24.933Z,30
2022-10-31T08:58:24.820Z,30
2022-10-31T08:59:21.929Z,35
2022-10-31T09:00:21.944Z,40
2022-10-31T09:01:22.836Z,40
2022-10-31T09:02:22.472Z,35
2022-10-31T09:03:25.971Z,40
2022-10-31T09:04:21.895Z,55
2022-10-31T09:05:21.918Z,45
2022-10-31T09:06:25.607Z,40
2022-10-31T09:07:29.664Z,50
2022-10-31T09:08:25.511Z,50
2022-10-31T09:09:24.862Z,40
2022-10-31T09:10:21.951Z,60
2022-10-31T09:11:21.931Z,45
2022-10-31T09:12:21.953Z,55
2022-10-31T09:13:21.925Z,45
2022-10-31T09:14:25.077Z,65
2022-10-31T09:15:21.945Z,65
2022-10-31T09:16:28.172Z,60
2022-10-31T09:17:21.937Z,55
2022-10-31T09:18:21.994Z,45
2022-10-31T09:19:25.063Z,40
2022-10-31T09:20:27.951Z,40
2022-10-31T09:21:22.022Z,45
2022-10-31T09:22:21.901Z,40
2022-10-31T09:23:21.928Z,40
2022-10-31T09:24:21.933Z,55
2022-10-31T09:25:24.962Z,40
2022-10-31T09:26:21.933Z,40
2022-10-31T09:27:21.925Z,35
2022-10-31T09:28:21.982Z,35
2022-10-31T09:29:22.006Z,35
2022-10-31T09:30:25.203Z,35
2022-10-31T09:31:21.781Z,40
2022-10-31T09:32:22.007Z,40
2022-10-31T09:33:25.097Z,45
2022-10-31T09:34:22.089Z,55
2022-10-31T09:35:29.288Z,55
2022-10-31T09:36:25.062Z,50
2022-10-31T09:37:21.991Z,45
2022-10-31T09:38:22.103Z,45
2022-10-31T09:39:21.949Z,40
2022-10-31T09:40:22.031Z,60
2022-10-31T09:41:25.047Z,70
2022-10-31T09:42:21.997Z,65
2022-10-31T09:43:21.815Z,70
2022-10-31T09:44:22.055Z,70
2022-10-31T09:45:22.010Z,65
2022-10-31T09:46:22.040Z,70
2022-10-31T09:47:27.687Z,70
2022-10-31T09:48:22.830Z,70
2022-10-31T09:49:24.684Z,70
2022-10-31T09:50:22.098Z,70
2022-10-31T09:51:22.105Z,70
2022-10-31T09:52:24.819Z,70
2022-10-31T09:53:21.852Z,70
2022-10-31T09:54:22.076Z,70
2022-10-31T09:55:21.998Z,65
2022-10-31T09:56:22.045Z,65
2022-10-31T09:57:21.982Z,65
2022-10-31T09:58:24.963Z,70
2022-10-31T09:59:22.068Z,65
2022-10-31T10:00:22.169Z,70
2022-10-31T10:01:23.045Z,70
2022-10-31T10:02:22.630Z,70
2022-10-31T10:03:24.975Z,70
2022-10-31T10:04:32.769Z,70
2022-10-31T10:05:22.107Z,70
2022-10-31T10:06:21.988Z,70
2022-10-31T10:07:22.002Z,70
2022-10-31T10:08:22.015Z,65
2022-10-31T10:09:25.228Z,65
2022-10-31T10:10:22.010Z,65
2022-10-31T10:11:22.018Z,70
2022-10-31T10:12:22.004Z,65
2022-10-31T10:13:22.467Z,60
2022-10-31T10:14:25.088Z,70
2022-10-31T10:15:22.007Z,65
2022-10-31T10:16:22.009Z,65
2022-10-31T10:17:22.018Z,70
2022-10-31T10:18:22.103Z,65
2022-10-31T10:19:22.090Z,65
2022-10-31T10:20:26.226Z,65
2022-10-31T10:21:22.018Z,65
2022-10-31T10:22:22.022Z,65
2022-10-31T10:23:22.456Z,60
2022-10-31T10:24:22.133Z,65
2022-10-31T10:25:28.134Z,65
2022-10-31T10:26:22.335Z,65
2022-10-31T10:27:28.028Z,65
2022-10-31T10:28:22.121Z,60
2022-10-31T10:29:22.057Z,60
2022-10-31T10:30:22.188Z,60
2022-10-31T10:31:25.246Z,60
2022-10-31T10:32:22.088Z,55
2022-10-31T10:33:22.058Z,55
2022-10-31T10:34:22.226Z,60
2022-10-31T10:35:22.113Z,60
2022-10-31T10:36:24.979Z,55
2022-10-31T10:37:22.069Z,55
2022-10-31T10:38:22.056Z,55
2022-10-31T10:39:22.085Z,55
2022-10-31T10:40:22.321Z,55
2022-10-31T10:41:25.110Z,55
2022-10-31T10:42:22.144Z,55
2022-10-31T10:43:22.101Z,55
2022-10-31T10:44:22.113Z,50
2022-10-31T10:45:22.288Z,45
2022-10-31T10:46:21.601Z,45
2022-10-31T10:47:22.095Z,45
2022-10-31T10:48:22.089Z,45
2022-10-31T10:49:22.035Z,45
2022-10-31T10:50:22.207Z,45
2022-10-31T10:52:53.973Z,45
2022-10-31T10:53:03.448Z,45
2022-10-31T10:54:12.915Z,45
2022-10-31T10:55:03.374Z,45
2022-10-31T10:56:06.457Z,40
2022-10-31T10:57:03.352Z,40
2022-10-31T10:58:04.975Z,40
2022-10-31T10:59:03.358Z,35
2022-10-31T11:00:03.430Z,35
2022-10-31T11:01:04.149Z,35
2022-10-31T11:02:08.652Z,30
2022-10-31T11:03:04.313Z,30
2022-10-31T11:04:03.382Z,30
2022-10-31T11:05:03.406Z,30
2022-10-31T11:06:03.523Z,30
2022-10-31T11:07:06.481Z,30
2022-10-31T11:08:03.400Z,30
2022-10-31T11:09:03.393Z,30
2022-10-31T11:10:03.420Z,30
2022-10-31T11:11:03.369Z,30
2022-10-31T11:12:03.430Z,30
2022-10-31T11:13:08.593Z,30
2022-10-31T11:14:03.391Z,30
2022-10-31T11:15:03.567Z,30
2022-10-31T11:16:03.641Z,30
2022-10-31T11:17:03.645Z,30
2022-10-31T11:18:06.143Z,30
2022-10-31T11:19:03.445Z,30
2022-10-31T11:20:03.439Z,30
2022-10-31T11:21:03.831Z,30
2022-10-31T11:22:03.749Z,30
2022-10-31T11:23:03.852Z,30
2022-10-31T11:24:03.448Z,30
2022-10-31T11:25:03.436Z,30
2022-10-31T11:26:03.446Z,30
2022-10-31T11:27:03.428Z,30
2022-10-31T11:28:03.465Z,30
2022-10-31T11:29:06.289Z,30
2022-10-31T11:30:09.590Z,30
2022-10-31T11:31:03.520Z,30
2022-10-31T11:32:03.475Z,25
2022-10-31T11:33:04.706Z,25
2022-10-31T11:34:06.280Z,25
2022-10-31T11:35:03.454Z,25
2022-10-31T11:36:07.120Z,25
2022-10-31T11:37:03.460Z,25
2022-10-31T11:38:05.246Z,25
2022-10-31T11:39:03.436Z,25
2022-10-31T11:40:03.526Z,25
2022-10-31T11:41:03.479Z,25
2022-10-31T11:42:11.361Z,25
2022-10-31T11:43:03.457Z,25
2022-10-31T11:44:03.677Z,25
2022-10-31T11:45:03.489Z,25
2022-10-31T11:46:03.453Z,30
2022-10-31T11:47:03.484Z,30
2022-10-31T11:48:09.917Z,30
2022-10-31T11:49:03.461Z,30
2022-10-31T11:50:03.493Z,25
2022-10-31T11:51:03.469Z,25
2022-10-31T11:52:03.476Z,30
2022-10-31T11:53:03.546Z,30
2022-10-31T11:54:10.156Z,25
2022-10-31T11:55:03.541Z,25
2022-10-31T11:56:06.316Z,25
2022-10-31T11:57:03.508Z,25
2022-10-31T11:58:04.725Z,25
2022-10-31T11:59:03.465Z,25
2022-10-31T12:00:03.561Z,25
2022-10-31T12:01:06.610Z,25
2022-10-31T12:02:04.610Z,25
2022-10-31T12:03:04.862Z,25
2022-10-31T12:04:03.529Z,25
2022-10-31T12:05:03.587Z,25
2022-10-31T12:06:03.582Z,25
2022-10-31T12:07:06.460Z,25
2022-10-31T12:08:10.323Z,25
2022-10-31T12:09:03.483Z,25
2022-10-31T12:10:03.636Z,20
2022-10-31T12:11:03.528Z,20
2022-10-31T12:12:06.333Z,25
2022-10-31T12:13:04.815Z,20
2022-10-31T12:14:09.491Z,25
2022-10-31T12:15:03.577Z,20
2022-10-31T12:16:03.543Z,25
2022-10-31T12:17:03.553Z,20
2022-10-31T12:18:06.684Z,20
2022-10-31T12:19:03.822Z,20
2022-10-31T12:20:05.395Z,20
2022-10-31T12:21:03.542Z,20
2022-10-31T12:22:03.537Z,20
2022-10-31T12:23:07.584Z,20
2022-10-31T12:24:03.568Z,20
2022-10-31T12:25:03.926Z,20
2022-10-31T12:26:03.585Z,20
2022-10-31T12:27:03.588Z,20
2022-10-31T12:28:03.549Z,20
2022-10-31T12:29:07.588Z,20
2022-10-31T12:30:03.683Z,20
2022-10-31T12:31:03.628Z,20
2022-10-31T12:32:03.558Z,20
2022-10-31T12:33:04.442Z,20
2022-10-31T12:34:06.720Z,20
2022-10-31T12:35:03.555Z,20
2022-10-31T12:36:03.567Z,20
2022-10-31T12:37:03.564Z,20
2022-10-31T12:38:04.636Z,20
2022-10-31T12:39:03.604Z,20
2022-10-31T12:40:06.424Z,20
2022-10-31T12:41:03.594Z,20
2022-10-31T12:42:03.637Z,20
2022-10-31T12:43:04.526Z,20
2022-10-31T12:44:04.044Z,20
2022-10-31T12:45:06.872Z,20
2022-10-31T12:46:03.581Z,20
2022-10-31T12:47:03.609Z,20
2022-10-31T12:48:03.611Z,20
2022-10-31T12:49:06.457Z,20
2022-10-31T12:50:03.642Z,20
2022-10-31T12:51:06.403Z,20
2022-10-31T12:52:03.563Z,20
2022-10-31T12:53:05.052Z,20
2022-10-31T12:54:03.614Z,20
2022-10-31T12:55:03.631Z,20
2022-10-31T12:56:04.672Z,20
2022-10-31T12:57:03.595Z,20
2022-10-31T12:58:04.946Z,20
2022-10-31T12:59:03.606Z,20
2022-10-31T13:00:03.771Z,20
2022-10-31T13:01:06.834Z,20
2022-10-31T13:02:07.650Z,20
2022-10-31T13:03:03.733Z,20
2022-10-31T13:04:03.669Z,20
2022-10-31T13:05:03.629Z,20
2022-10-31T13:06:03.641Z,15
2022-10-31T13:07:06.376Z,15
2022-10-31T13:08:04.662Z,15
2022-10-31T13:09:03.605Z,15
2022-10-31T13:10:03.646Z,15
2022-10-31T13:11:03.737Z,15
2022-10-31T13:12:06.603Z,15
2022-10-31T13:13:11.526Z,15
2022-10-31T13:14:03.647Z,15
2022-10-31T13:15:03.947Z,15
2022-10-31T13:16:03.892Z,15
2022-10-31T13:17:04.201Z,15
2022-10-31T13:18:06.550Z,15
2022-10-31T13:19:03.633Z,15
2022-10-31T13:20:03.697Z,15
2022-10-31T13:21:05.000Z,15
2022-10-31T13:22:03.855Z,15
2022-10-31T13:23:50.679Z,15
2022-10-31T13:24:03.647Z,15
2022-10-31T13:25:03.971Z,15
2022-10-31T13:26:03.918Z,15
2022-10-31T13:27:03.668Z,10
2022-10-31T13:28:03.637Z,10
2022-10-31T13:29:06.822Z,10
2022-10-31T13:30:03.645Z,10
2022-10-31T13:31:04.043Z,10
2022-10-31T13:32:06.572Z,10
2022-10-31T13:33:05.050Z,10
2022-10-31T13:34:07.886Z,10
2022-10-31T13:35:04.092Z,10
2022-10-31T13:36:03.923Z,10
2022-10-31T13:37:03.867Z,10
2022-10-31T13:38:04.268Z,10
2022-10-31T13:39:03.598Z,10
2022-10-31T13:40:06.790Z,15
2022-10-31T13:41:04.684Z,15
2022-10-31T13:42:03.695Z,15
2022-10-31T13:43:04.896Z,15
2022-10-31T13:44:03.837Z,15
2022-10-31T13:45:06.525Z,15
2022-10-31T13:46:03.670Z,15
2022-10-31T13:47:03.674Z,15
2022-10-31T13:48:05.211Z,15
2022-10-31T13:49:03.918Z,15
2022-10-31T13:50:03.694Z,15
2022-10-31T13:51:03.814Z,15
2022-10-31T13:52:03.721Z,15
2022-10-31T13:53:03.717Z,15
2022-10-31T13:54:03.734Z,15
2022-10-31T13:55:03.790Z,15
2022-10-31T13:56:06.517Z,15
2022-10-31T13:57:03.690Z,15
2022-10-31T13:58:04.696Z,15
2022-10-31T13:59:03.914Z,15
2022-10-31T14:00:03.762Z,15
2022-10-31T14:01:04.265Z,15
2022-10-31T14:02:04.764Z,15
2022-10-31T14:03:04.230Z,15
2022-10-31T14:04:31.283Z,15
2022-10-31T14:05:03.770Z,15
2022-10-31T14:06:03.745Z,15
2022-10-31T14:07:03.710Z,10
2022-10-31T14:08:05.155Z,10
2022-10-31T14:09:04.053Z,10
2022-10-31T14:11:04.344Z,10
2022-10-31T14:12:03.712Z,10
2022-10-31T14:13:04.006Z,10
2022-10-31T14:14:03.722Z,10
2022-10-31T14:15:03.608Z,10
2022-10-31T14:16:03.758Z,10
2022-10-31T14:17:05.238Z,10
2022-10-31T14:18:05.157Z,10
2022-10-31T14:19:03.726Z,10
2022-10-31T14:20:03.936Z,10
2022-10-31T14:21:03.747Z,10
2022-10-31T14:22:03.903Z,10
2022-10-31T14:23:06.673Z,10
2022-10-31T14:24:04.555Z,10
2022-10-31T14:25:06.494Z,5
2022-10-31T14:26:03.778Z,5
2022-10-31T14:27:03.822Z,5
2022-10-31T14:28:08.587Z,5
2022-10-31T14:29:04.530Z,5
2022-10-31T14:30:03.791Z,5
2022-10-31T14:31:03.991Z,5
2022-10-31T14:32:03.789Z,5
2022-10-31T14:33:04.382Z,5
2022-10-31T14:34:06.629Z,5
2022-10-31T14:35:03.935Z,5
2022-10-31T14:36:03.846Z,5
2022-10-31T14:37:03.824Z,5